sensor_id;sensor_type;location;lat;lon;timestamp;temperature;humidity
20698;DHT22;10508;50.956;4.640;2022-08-01T00:00:22;21.60;99.90
20698;DHT22;10508;50.956;4.640;2022-08-01T00:02:48;21.60;99.90
20698;DHT22;10508;50.956;4.640;2022-08-01T00:05:14;21.60;99.90
20698;DHT22;10508;50.956;4.640;2022-08-01T00:07:40;21.60;99.90
20698;DHT22;10508;50.956;4.640;2022-08-01T00:10:09;21.60;99.90
20698;DHT22;10508;50.956;4.640;2022-08-01T00:12:35;21.60;99.90
20698;DHT22;10508;50.956;4.640;2022-08-01T00:15:00;21.60;99.90
20698;DHT22;10508;50.956;4.640;2022-08-01T00:17:26;21.60;99.90
20698;DHT22;10508;50.956;4.640;2022-08-01T00:19:52;21.50;99.90
20698;DHT22;10508;50.956;4.640;2022-08-01T00:22:17;21.50;99.90
20698;DHT22;10508;50.956;4.640;2022-08-01T00:24:43;21.50;99.90
20698;DHT22;10508;50.956;4.640;2022-08-01T00:27:09;21.40;99.90
20698;DHT22;10508;50.956;4.640;2022-08-01T00:29:34;21.40;99.90
20698;DHT22;10508;50.956;4.640;2022-08-01T00:32:00;21.40;99.90
20698;DHT22;10508;50.956;4.640;2022-08-01T00:34:26;21.40;99.90
20698;DHT22;10508;50.956;4.640;2022-08-01T00:36:51;21.30;99.90
20698;DHT22;10508;50.956;4.640;2022-08-01T00:39:17;21.20;99.90
20698;DHT22;10508;50.956;4.640;2022-08-01T00:41:42;21.30;99.90
20698;DHT22;10508;50.956;4.640;2022-08-01T00:44:08;21.30;99.90
20698;DHT22;10508;50.956;4.640;2022-08-01T00:46:34;21.30;99.90
20698;DHT22;10508;50.956;4.640;2022-08-01T00:49:02;21.30;99.90
20698;DHT22;10508;50.956;4.640;2022-08-01T00:51:27;21.30;99.90
20698;DHT22;10508;50.956;4.640;2022-08-01T00:53:54;21.30;99.90
20698;DHT22;10508;50.956;4.640;2022-08-01T00:56:21;21.40;99.90
20698;DHT22;10508;50.956;4.640;2022-08-01T00:58:47;21.30;99.90
20698;DHT22;10508;50.956;4.640;2022-08-01T01:01:13;21.20;99.90
20698;DHT22;10508;50.956;4.640;2022-08-01T01:03:39;21.30;99.90
20698;DHT22;10508;50.956;4.640;2022-08-01T01:06:16;21.20;99.90
20698;DHT22;10508;50.956;4.640;2022-08-01T01:09:00;21.20;99.90
20698;DHT22;10508;50.956;4.640;2022-08-01T01:14:33;21.10;99.90
20698;DHT22;10508;50.956;4.640;2022-08-01T01:17:01;21.10;99.90
20698;DHT22;10508;50.956;4.640;2022-08-01T01:19:30;21.10;99.90
20698;DHT22;10508;50.956;4.640;2022-08-01T01:24:45;21.00;99.90
20698;DHT22;10508;50.956;4.640;2022-08-01T01:27:28;21.00;99.90
20698;DHT22;10508;50.956;4.640;2022-08-01T01:30:00;21.00;99.90
20698;DHT22;10508;50.956;4.640;2022-08-01T01:32:32;21.10;99.90
20698;DHT22;10508;50.956;4.640;2022-08-01T01:35:00;21.10;99.90
20698;DHT22;10508;50.956;4.640;2022-08-01T01:37:28;21.10;99.90
20698;DHT22;10508;50.956;4.640;2022-08-01T01:39:56;21.10;99.90
20698;DHT22;10508;50.956;4.640;2022-08-01T01:42:24;21.10;99.90
20698;DHT22;10508;50.956;4.640;2022-08-01T01:44:51;21.10;99.90
20698;DHT22;10508;50.956;4.640;2022-08-01T01:47:17;21.00;99.90
20698;DHT22;10508;50.956;4.640;2022-08-01T01:49:45;21.00;99.90
20698;DHT22;10508;50.956;4.640;2022-08-01T01:52:14;20.90;99.90
20698;DHT22;10508;50.956;4.640;2022-08-01T01:54:46;21.00;99.90
20698;DHT22;10508;50.956;4.640;2022-08-01T01:57:14;21.00;99.90
20698;DHT22;10508;50.956;4.640;2022-08-01T01:59:41;21.00;99.90
20698;DHT22;10508;50.956;4.640;2022-08-01T02:02:09;21.00;99.90
20698;DHT22;10508;50.956;4.640;2022-08-01T02:04:38;21.10;99.90
20698;DHT22;10508;50.956;4.640;2022-08-01T02:07:06;21.10;99.90
20698;DHT22;10508;50.956;4.640;2022-08-01T02:09:35;21.00;99.90
20698;DHT22;10508;50.956;4.640;2022-08-01T02:12:02;21.00;99.90
20698;DHT22;10508;50.956;4.640;2022-08-01T02:14:29;21.00;99.90
20698;DHT22;10508;50.956;4.640;2022-08-01T02:16:57;20.90;99.90
20698;DHT22;10508;50.956;4.640;2022-08-01T02:19:24;21.00;99.90
20698;DHT22;10508;50.956;4.640;2022-08-01T02:22:00;21.00;99.90
20698;DHT22;10508;50.956;4.640;2022-08-01T02:25:00;20.90;99.90
20698;DHT22;10508;50.956;4.640;2022-08-01T02:27:58;20.90;99.90
20698;DHT22;10508;50.956;4.640;2022-08-01T02:30:29;20.90;99.90
20698;DHT22;10508;50.956;4.640;2022-08-01T02:33:04;20.90;99.90
20698;DHT22;10508;50.956;4.640;2022-08-01T02:35:33;20.80;99.90
20698;DHT22;10508;50.956;4.640;2022-08-01T02:38:01;20.80;99.90
20698;DHT22;10508;50.956;4.640;2022-08-01T02:40:32;20.80;99.90
20698;DHT22;10508;50.956;4.640;2022-08-01T02:43:00;20.80;99.90
20698;DHT22;10508;50.956;4.640;2022-08-01T02:45:26;20.80;99.90
20698;DHT22;10508;50.956;4.640;2022-08-01T02:47:59;20.70;99.90
20698;DHT22;10508;50.956;4.640;2022-08-01T02:50:28;20.70;99.90
20698;DHT22;10508;50.956;4.640;2022-08-01T02:52:55;20.70;99.90
20698;DHT22;10508;50.956;4.640;2022-08-01T02:55:22;20.70;99.90
20698;DHT22;10508;50.956;4.640;2022-08-01T02:57:50;20.60;99.90
20698;DHT22;10508;50.956;4.640;2022-08-01T03:00:17;20.60;99.90
20698;DHT22;10508;50.956;4.640;2022-08-01T03:02:44;20.60;99.90
20698;DHT22;10508;50.956;4.640;2022-08-01T03:05:12;20.60;99.90
20698;DHT22;10508;50.956;4.640;2022-08-01T03:07:39;20.60;99.90
20698;DHT22;10508;50.956;4.640;2022-08-01T03:10:06;20.60;99.90
20698;DHT22;10508;50.956;4.640;2022-08-01T03:12:33;20.60;99.90
20698;DHT22;10508;50.956;4.640;2022-08-01T03:15:00;20.60;99.90
20698;DHT22;10508;50.956;4.640;2022-08-01T03:17:28;20.60;99.90
20698;DHT22;10508;50.956;4.640;2022-08-01T03:19:57;20.60;99.90
20698;DHT22;10508;50.956;4.640;2022-08-01T03:22:26;20.50;99.90
20698;DHT22;10508;50.956;4.640;2022-08-01T03:24:53;20.50;99.90
20698;DHT22;10508;50.956;4.640;2022-08-01T03:27:23;20.50;99.90
20698;DHT22;10508;50.956;4.640;2022-08-01T03:29:51;20.50;99.90
20698;DHT22;10508;50.956;4.640;2022-08-01T03:32:18;20.40;99.90
20698;DHT22;10508;50.956;4.640;2022-08-01T03:34:45;20.40;99.90
20698;DHT22;10508;50.956;4.640;2022-08-01T03:40:00;20.40;99.90
20698;DHT22;10508;50.956;4.640;2022-08-01T03:42:35;20.30;99.90
20698;DHT22;10508;50.956;4.640;2022-08-01T03:45:08;20.30;99.90
20698;DHT22;10508;50.956;4.640;2022-08-01T03:47:42;20.30;99.90
20698;DHT22;10508;50.956;4.640;2022-08-01T03:50:10;20.10;99.90
20698;DHT22;10508;50.956;4.640;2022-08-01T03:52:38;20.20;99.90
20698;DHT22;10508;50.956;4.640;2022-08-01T03:55:06;20.10;99.90
20698;DHT22;10508;50.956;4.640;2022-08-01T03:57:35;20.10;99.90
20698;DHT22;10508;50.956;4.640;2022-08-01T04:00:02;20.10;99.90
20698;DHT22;10508;50.956;4.640;2022-08-01T04:02:31;20.10;99.90
20698;DHT22;10508;50.956;4.640;2022-08-01T04:04:59;20.10;99.90
20698;DHT22;10508;50.956;4.640;2022-08-01T04:07:33;20.00;99.90
20698;DHT22;10508;50.956;4.640;2022-08-01T04:10:05;20.00;99.90
20698;DHT22;10508;50.956;4.640;2022-08-01T04:12:30;20.00;99.90
20698;DHT22;10508;50.956;4.640;2022-08-01T04:14:56;20.00;99.90
20698;DHT22;10508;50.956;4.640;2022-08-01T04:17:21;20.00;99.90
20698;DHT22;10508;50.956;4.640;2022-08-01T04:19:47;20.00;99.90
20698;DHT22;10508;50.956;4.640;2022-08-01T04:22:16;19.90;99.90
20698;DHT22;10508;50.956;4.640;2022-08-01T04:24:46;19.90;99.90
20698;DHT22;10508;50.956;4.640;2022-08-01T04:27:20;20.00;99.90
20698;DHT22;10508;50.956;4.640;2022-08-01T04:29:49;20.00;99.90
20698;DHT22;10508;50.956;4.640;2022-08-01T04:32:16;19.90;99.90
20698;DHT22;10508;50.956;4.640;2022-08-01T04:34:45;19.90;99.90
20698;DHT22;10508;50.956;4.640;2022-08-01T04:37:12;19.90;99.90
20698;DHT22;10508;50.956;4.640;2022-08-01T04:39:42;19.90;99.90
20698;DHT22;10508;50.956;4.640;2022-08-01T04:42:08;20.00;99.90
20698;DHT22;10508;50.956;4.640;2022-08-01T04:44:36;20.00;99.90
20698;DHT22;10508;50.956;4.640;2022-08-01T04:47:03;20.00;99.90
20698;DHT22;10508;50.956;4.640;2022-08-01T04:49:31;20.00;99.90
20698;DHT22;10508;50.956;4.640;2022-08-01T04:51:57;19.90;99.90
20698;DHT22;10508;50.956;4.640;2022-08-01T04:54:29;20.00;99.90
20698;DHT22;10508;50.956;4.640;2022-08-01T04:56:55;20.00;99.90
20698;DHT22;10508;50.956;4.640;2022-08-01T04:59:28;20.10;99.90
20698;DHT22;10508;50.956;4.640;2022-08-01T05:02:10;20.00;99.90
20698;DHT22;10508;50.956;4.640;2022-08-01T05:04:37;20.10;99.90
20698;DHT22;10508;50.956;4.640;2022-08-01T05:07:04;20.10;99.90
20698;DHT22;10508;50.956;4.640;2022-08-01T05:09:30;20.00;99.90
20698;DHT22;10508;50.956;4.640;2022-08-01T05:11:57;20.00;99.90
20698;DHT22;10508;50.956;4.640;2022-08-01T05:14:27;20.00;99.90
20698;DHT22;10508;50.956;4.640;2022-08-01T05:16:53;20.00;99.90
20698;DHT22;10508;50.956;4.640;2022-08-01T05:19:20;20.10;99.90
20698;DHT22;10508;50.956;4.640;2022-08-01T05:21:46;20.10;99.90
20698;DHT22;10508;50.956;4.640;2022-08-01T05:24:12;20.10;99.90
20698;DHT22;10508;50.956;4.640;2022-08-01T05:26:38;20.20;99.90
20698;DHT22;10508;50.956;4.640;2022-08-01T05:29:04;20.10;99.90
20698;DHT22;10508;50.956;4.640;2022-08-01T05:31:30;20.10;99.90
20698;DHT22;10508;50.956;4.640;2022-08-01T05:34:00;20.10;99.90
20698;DHT22;10508;50.956;4.640;2022-08-01T05:36:25;20.10;99.90
20698;DHT22;10508;50.956;4.640;2022-08-01T05:38:51;20.10;99.90
20698;DHT22;10508;50.956;4.640;2022-08-01T05:41:16;20.10;99.90
20698;DHT22;10508;50.956;4.640;2022-08-01T05:43:42;20.20;99.90
20698;DHT22;10508;50.956;4.640;2022-08-01T05:46:08;20.30;99.90
20698;DHT22;10508;50.956;4.640;2022-08-01T05:48:33;20.30;99.90
20698;DHT22;10508;50.956;4.640;2022-08-01T05:50:59;20.30;99.90
20698;DHT22;10508;50.956;4.640;2022-08-01T05:53:25;20.30;99.90
20698;DHT22;10508;50.956;4.640;2022-08-01T05:55:50;20.30;99.90
20698;DHT22;10508;50.956;4.640;2022-08-01T05:58:16;20.30;99.90
20698;DHT22;10508;50.956;4.640;2022-08-01T06:00:41;20.30;99.90
20698;DHT22;10508;50.956;4.640;2022-08-01T06:03:07;20.40;99.90
20698;DHT22;10508;50.956;4.640;2022-08-01T06:05:32;20.30;99.90
20698;DHT22;10508;50.956;4.640;2022-08-01T06:07:58;20.40;99.90
20698;DHT22;10508;50.956;4.640;2022-08-01T06:10:24;20.40;99.90
20698;DHT22;10508;50.956;4.640;2022-08-01T06:12:49;20.40;99.90
20698;DHT22;10508;50.956;4.640;2022-08-01T06:15:15;20.40;99.90
20698;DHT22;10508;50.956;4.640;2022-08-01T06:17:40;20.40;99.90
20698;DHT22;10508;50.956;4.640;2022-08-01T06:20:07;20.50;99.90
20698;DHT22;10508;50.956;4.640;2022-08-01T06:22:33;20.60;99.90
20698;DHT22;10508;50.956;4.640;2022-08-01T06:24:58;20.50;99.90
20698;DHT22;10508;50.956;4.640;2022-08-01T06:27:24;20.60;99.90
20698;DHT22;10508;50.956;4.640;2022-08-01T06:29:52;20.70;99.90
20698;DHT22;10508;50.956;4.640;2022-08-01T06:32:22;20.70;99.90
20698;DHT22;10508;50.956;4.640;2022-08-01T06:34:48;20.70;99.90
20698;DHT22;10508;50.956;4.640;2022-08-01T06:37:14;20.80;99.90
20698;DHT22;10508;50.956;4.640;2022-08-01T06:39:40;20.80;99.90
20698;DHT22;10508;50.956;4.640;2022-08-01T06:42:05;20.80;99.90
20698;DHT22;10508;50.956;4.640;2022-08-01T06:44:31;20.90;99.90
20698;DHT22;10508;50.956;4.640;2022-08-01T06:46:57;20.90;99.90
20698;DHT22;10508;50.956;4.640;2022-08-01T06:49:24;20.90;99.90
20698;DHT22;10508;50.956;4.640;2022-08-01T06:51:50;20.90;99.90
20698;DHT22;10508;50.956;4.640;2022-08-01T06:54:15;20.90;99.90
20698;DHT22;10508;50.956;4.640;2022-08-01T06:56:42;21.00;99.90
20698;DHT22;10508;50.956;4.640;2022-08-01T06:59:08;21.10;99.90
20698;DHT22;10508;50.956;4.640;2022-08-01T07:01:33;21.20;99.90
20698;DHT22;10508;50.956;4.640;2022-08-01T07:03:59;21.10;99.90
20698;DHT22;10508;50.956;4.640;2022-08-01T07:06:25;21.10;99.90
20698;DHT22;10508;50.956;4.640;2022-08-01T07:08:52;21.00;99.90
20698;DHT22;10508;50.956;4.640;2022-08-01T07:11:18;21.00;99.90
20698;DHT22;10508;50.956;4.640;2022-08-01T07:13:44;21.10;99.90
20698;DHT22;10508;50.956;4.640;2022-08-01T07:16:14;21.10;99.90
20698;DHT22;10508;50.956;4.640;2022-08-01T07:18:41;21.10;99.90
20698;DHT22;10508;50.956;4.640;2022-08-01T07:21:07;21.20;99.90
20698;DHT22;10508;50.956;4.640;2022-08-01T07:23:34;21.20;99.90
20698;DHT22;10508;50.956;4.640;2022-08-01T07:26:08;21.20;99.90
20698;DHT22;10508;50.956;4.640;2022-08-01T07:28:34;21.20;99.90
20698;DHT22;10508;50.956;4.640;2022-08-01T07:31:00;21.30;99.90
20698;DHT22;10508;50.956;4.640;2022-08-01T07:33:25;21.30;99.90
20698;DHT22;10508;50.956;4.640;2022-08-01T07:35:51;21.30;99.90
20698;DHT22;10508;50.956;4.640;2022-08-01T07:38:16;21.20;99.90
20698;DHT22;10508;50.956;4.640;2022-08-01T07:40:45;21.20;99.90
20698;DHT22;10508;50.956;4.640;2022-08-01T07:43:10;21.40;99.90
20698;DHT22;10508;50.956;4.640;2022-08-01T07:45:36;21.50;99.90
20698;DHT22;10508;50.956;4.640;2022-08-01T07:48:06;21.70;99.90
20698;DHT22;10508;50.956;4.640;2022-08-01T07:50:32;21.80;99.90
20698;DHT22;10508;50.956;4.640;2022-08-01T07:52:58;22.00;99.90
20698;DHT22;10508;50.956;4.640;2022-08-01T07:55:24;22.00;99.90
20698;DHT22;10508;50.956;4.640;2022-08-01T07:57:50;22.10;99.90
20698;DHT22;10508;50.956;4.640;2022-08-01T08:00:16;22.20;99.90
20698;DHT22;10508;50.956;4.640;2022-08-01T08:02:41;22.30;99.90
20698;DHT22;10508;50.956;4.640;2022-08-01T08:05:07;22.20;99.90
20698;DHT22;10508;50.956;4.640;2022-08-01T08:07:33;22.30;99.90
20698;DHT22;10508;50.956;4.640;2022-08-01T08:09:59;22.30;99.90
20698;DHT22;10508;50.956;4.640;2022-08-01T08:12:25;22.30;99.90
20698;DHT22;10508;50.956;4.640;2022-08-01T08:14:50;22.40;99.90
20698;DHT22;10508;50.956;4.640;2022-08-01T08:17:16;22.40;99.90
20698;DHT22;10508;50.956;4.640;2022-08-01T08:19:42;22.30;99.90
20698;DHT22;10508;50.956;4.640;2022-08-01T08:22:08;22.40;99.90
20698;DHT22;10508;50.956;4.640;2022-08-01T08:24:35;22.40;99.90
20698;DHT22;10508;50.956;4.640;2022-08-01T08:27:01;22.50;99.90
20698;DHT22;10508;50.956;4.640;2022-08-01T08:29:28;22.60;99.90
20698;DHT22;10508;50.956;4.640;2022-08-01T08:31:56;22.60;99.90
20698;DHT22;10508;50.956;4.640;2022-08-01T08:34:21;22.70;99.90
20698;DHT22;10508;50.956;4.640;2022-08-01T08:36:48;22.70;99.90
20698;DHT22;10508;50.956;4.640;2022-08-01T08:39:14;22.80;99.90
20698;DHT22;10508;50.956;4.640;2022-08-01T08:41:41;22.80;99.90
20698;DHT22;10508;50.956;4.640;2022-08-01T08:44:08;22.80;99.90
20698;DHT22;10508;50.956;4.640;2022-08-01T08:46:41;22.70;99.90
20698;DHT22;10508;50.956;4.640;2022-08-01T08:49:07;22.70;99.90
20698;DHT22;10508;50.956;4.640;2022-08-01T08:51:34;22.80;99.90
20698;DHT22;10508;50.956;4.640;2022-08-01T08:54:03;22.80;99.90
20698;DHT22;10508;50.956;4.640;2022-08-01T08:56:30;23.00;99.90
20698;DHT22;10508;50.956;4.640;2022-08-01T08:59:00;23.10;99.90
20698;DHT22;10508;50.956;4.640;2022-08-01T09:01:26;23.40;99.90
20698;DHT22;10508;50.956;4.640;2022-08-01T09:03:53;23.60;99.90
20698;DHT22;10508;50.956;4.640;2022-08-01T09:06:18;23.70;99.90
20698;DHT22;10508;50.956;4.640;2022-08-01T09:08:44;23.40;99.90
20698;DHT22;10508;50.956;4.640;2022-08-01T09:11:10;23.20;99.90
20698;DHT22;10508;50.956;4.640;2022-08-01T09:13:36;23.10;99.90
20698;DHT22;10508;50.956;4.640;2022-08-01T09:16:02;23.10;99.90
20698;DHT22;10508;50.956;4.640;2022-08-01T09:18:33;23.10;99.90
20698;DHT22;10508;50.956;4.640;2022-08-01T09:21:19;23.10;99.90
20698;DHT22;10508;50.956;4.640;2022-08-01T09:23:53;23.50;99.90
20698;DHT22;10508;50.956;4.640;2022-08-01T09:28:56;24.10;99.40
20698;DHT22;10508;50.956;4.640;2022-08-01T09:31:21;24.10;98.70
20698;DHT22;10508;50.956;4.640;2022-08-01T09:33:54;24.00;98.80
20698;DHT22;10508;50.956;4.640;2022-08-01T09:36:22;23.90;98.80
20698;DHT22;10508;50.956;4.640;2022-08-01T09:38:48;23.90;99.00
20698;DHT22;10508;50.956;4.640;2022-08-01T09:41:14;24.00;98.80
20698;DHT22;10508;50.956;4.640;2022-08-01T09:43:39;24.20;97.40
20698;DHT22;10508;50.956;4.640;2022-08-01T09:46:11;24.40;97.70
20698;DHT22;10508;50.956;4.640;2022-08-01T09:48:37;24.80;97.30
20698;DHT22;10508;50.956;4.640;2022-08-01T09:51:06;25.00;96.40
20698;DHT22;10508;50.956;4.640;2022-08-01T09:53:44;25.20;96.10
20698;DHT22;10508;50.956;4.640;2022-08-01T09:56:12;25.30;94.90
20698;DHT22;10508;50.956;4.640;2022-08-01T09:58:55;25.30;95.30
20698;DHT22;10508;50.956;4.640;2022-08-01T10:01:21;25.50;94.60
20698;DHT22;10508;50.956;4.640;2022-08-01T10:04:07;25.60;95.10
20698;DHT22;10508;50.956;4.640;2022-08-01T10:06:33;25.50;93.80
20698;DHT22;10508;50.956;4.640;2022-08-01T10:08:59;25.70;94.30
20698;DHT22;10508;50.956;4.640;2022-08-01T10:11:24;25.50;93.60
20698;DHT22;10508;50.956;4.640;2022-08-01T10:13:51;25.30;93.50
20698;DHT22;10508;50.956;4.640;2022-08-01T10:16:18;25.30;93.20
20698;DHT22;10508;50.956;4.640;2022-08-01T10:18:44;25.30;93.20
20698;DHT22;10508;50.956;4.640;2022-08-01T10:21:11;25.40;93.20
20698;DHT22;10508;50.956;4.640;2022-08-01T10:23:38;25.10;93.10
20698;DHT22;10508;50.956;4.640;2022-08-01T10:26:05;25.30;93.60
20698;DHT22;10508;50.956;4.640;2022-08-01T10:28:31;25.40;94.10
20698;DHT22;10508;50.956;4.640;2022-08-01T10:31:00;25.50;93.50
20698;DHT22;10508;50.956;4.640;2022-08-01T10:33:28;25.70;92.90
20698;DHT22;10508;50.956;4.640;2022-08-01T10:35:54;26.00;93.30
20698;DHT22;10508;50.956;4.640;2022-08-01T10:38:20;26.30;92.10
20698;DHT22;10508;50.956;4.640;2022-08-01T10:40:46;26.20;91.10
20698;DHT22;10508;50.956;4.640;2022-08-01T10:43:12;26.30;91.20
20698;DHT22;10508;50.956;4.640;2022-08-01T10:45:40;26.20;91.30
20698;DHT22;10508;50.956;4.640;2022-08-01T10:48:45;26.30;91.90
20698;DHT22;10508;50.956;4.640;2022-08-01T10:51:12;26.60;90.90
20698;DHT22;10508;50.956;4.640;2022-08-01T10:53:46;26.60;90.70
20698;DHT22;10508;50.956;4.640;2022-08-01T10:56:12;26.70;90.80
20698;DHT22;10508;50.956;4.640;2022-08-01T10:58:39;26.90;90.60
20698;DHT22;10508;50.956;4.640;2022-08-01T11:01:26;26.90;90.30
20698;DHT22;10508;50.956;4.640;2022-08-01T11:09:03;27.00;90.10
20698;DHT22;10508;50.956;4.640;2022-08-01T11:11:29;26.90;90.30
20698;DHT22;10508;50.956;4.640;2022-08-01T11:16:28;27.10;90.00
20698;DHT22;10508;50.956;4.640;2022-08-01T11:18:54;27.00;89.70
20698;DHT22;10508;50.956;4.640;2022-08-01T11:21:19;27.20;88.10
20698;DHT22;10508;50.956;4.640;2022-08-01T11:23:50;27.50;89.00
20698;DHT22;10508;50.956;4.640;2022-08-01T11:26:20;27.60;87.10
20698;DHT22;10508;50.956;4.640;2022-08-01T11:29:12;27.60;86.90
20698;DHT22;10508;50.956;4.640;2022-08-01T11:31:38;27.60;87.10
20698;DHT22;10508;50.956;4.640;2022-08-01T11:34:04;27.40;85.70
20698;DHT22;10508;50.956;4.640;2022-08-01T11:36:30;27.00;86.30
20698;DHT22;10508;50.956;4.640;2022-08-01T11:41:33;27.00;87.30
20698;DHT22;10508;50.956;4.640;2022-08-01T11:47:01;26.90;87.50
20698;DHT22;10508;50.956;4.640;2022-08-01T11:52:29;27.10;86.20
20698;DHT22;10508;50.956;4.640;2022-08-01T11:54:56;27.40;84.90
20698;DHT22;10508;50.956;4.640;2022-08-01T11:57:23;27.60;85.00
20698;DHT22;10508;50.956;4.640;2022-08-01T11:59:53;27.80;83.50
20698;DHT22;10508;50.956;4.640;2022-08-01T12:07:17;27.70;83.40
20698;DHT22;10508;50.956;4.640;2022-08-01T12:09:43;27.90;82.70
20698;DHT22;10508;50.956;4.640;2022-08-01T12:12:10;28.00;82.40
20698;DHT22;10508;50.956;4.640;2022-08-01T12:14:36;28.10;82.80
20698;DHT22;10508;50.956;4.640;2022-08-01T12:17:01;28.10;82.70
20698;DHT22;10508;50.956;4.640;2022-08-01T12:19:27;28.30;81.50
20698;DHT22;10508;50.956;4.640;2022-08-01T12:22:12;28.50;79.70
20698;DHT22;10508;50.956;4.640;2022-08-01T12:24:39;28.70;79.10
20698;DHT22;10508;50.956;4.640;2022-08-01T12:27:06;28.90;78.00
20698;DHT22;10508;50.956;4.640;2022-08-01T12:29:38;28.90;76.70
20698;DHT22;10508;50.956;4.640;2022-08-01T12:32:10;28.90;77.30
20698;DHT22;10508;50.956;4.640;2022-08-01T12:34:45;28.80;76.20
20698;DHT22;10508;50.956;4.640;2022-08-01T12:37:11;28.60;77.20
20698;DHT22;10508;50.956;4.640;2022-08-01T12:39:38;28.50;78.30
20698;DHT22;10508;50.956;4.640;2022-08-01T12:42:08;28.60;78.80
20698;DHT22;10508;50.956;4.640;2022-08-01T12:44:36;28.50;76.40
20698;DHT22;10508;50.956;4.640;2022-08-01T12:47:03;28.50;77.70
20698;DHT22;10508;50.956;4.640;2022-08-01T12:49:29;28.60;74.00
20698;DHT22;10508;50.956;4.640;2022-08-01T12:51:55;28.80;75.60
20698;DHT22;10508;50.956;4.640;2022-08-01T12:54:21;28.80;75.90
20698;DHT22;10508;50.956;4.640;2022-08-01T12:56:50;28.80;73.80
20698;DHT22;10508;50.956;4.640;2022-08-01T12:59:23;28.70;73.80
20698;DHT22;10508;50.956;4.640;2022-08-01T13:01:51;28.60;73.80
20698;DHT22;10508;50.956;4.640;2022-08-01T13:04:17;28.40;72.90
20698;DHT22;10508;50.956;4.640;2022-08-01T13:06:43;28.40;73.50
20698;DHT22;10508;50.956;4.640;2022-08-01T13:09:10;28.20;71.50
20698;DHT22;10508;50.956;4.640;2022-08-01T13:11:40;28.30;72.70
20698;DHT22;10508;50.956;4.640;2022-08-01T13:14:06;28.50;75.70
20698;DHT22;10508;50.956;4.640;2022-08-01T13:16:32;28.70;74.50
20698;DHT22;10508;50.956;4.640;2022-08-01T13:18:58;28.90;75.10
20698;DHT22;10508;50.956;4.640;2022-08-01T13:21:26;29.10;74.00
20698;DHT22;10508;50.956;4.640;2022-08-01T13:24:06;29.40;73.90
20698;DHT22;10508;50.956;4.640;2022-08-01T13:26:57;29.60;73.40
20698;DHT22;10508;50.956;4.640;2022-08-01T13:29:36;29.70;72.70
20698;DHT22;10508;50.956;4.640;2022-08-01T13:32:16;29.80;69.00
20698;DHT22;10508;50.956;4.640;2022-08-01T13:34:42;29.90;69.90
20698;DHT22;10508;50.956;4.640;2022-08-01T13:37:08;29.90;70.50
20698;DHT22;10508;50.956;4.640;2022-08-01T13:39:34;30.00;71.60
20698;DHT22;10508;50.956;4.640;2022-08-01T13:42:16;30.20;70.40
20698;DHT22;10508;50.956;4.640;2022-08-01T13:44:42;30.20;70.50
20698;DHT22;10508;50.956;4.640;2022-08-01T13:47:10;30.20;69.00
20698;DHT22;10508;50.956;4.640;2022-08-01T13:49:36;30.40;68.40
20698;DHT22;10508;50.956;4.640;2022-08-01T13:52:02;30.40;66.80
20698;DHT22;10508;50.956;4.640;2022-08-01T13:54:28;30.50;67.20
20698;DHT22;10508;50.956;4.640;2022-08-01T13:56:54;30.40;67.30
20698;DHT22;10508;50.956;4.640;2022-08-01T13:59:19;30.70;66.40
20698;DHT22;10508;50.956;4.640;2022-08-01T14:01:45;30.70;66.60
20698;DHT22;10508;50.956;4.640;2022-08-01T14:04:11;30.90;65.40
20698;DHT22;10508;50.956;4.640;2022-08-01T14:06:38;31.00;65.40
20698;DHT22;10508;50.956;4.640;2022-08-01T14:09:05;30.50;64.80
20698;DHT22;10508;50.956;4.640;2022-08-01T14:11:31;30.60;66.00
20698;DHT22;10508;50.956;4.640;2022-08-01T14:13:57;30.90;66.10
20698;DHT22;10508;50.956;4.640;2022-08-01T14:16:22;31.20;65.60
20698;DHT22;10508;50.956;4.640;2022-08-01T14:18:48;31.00;64.50
20698;DHT22;10508;50.956;4.640;2022-08-01T14:21:14;30.80;65.70
20698;DHT22;10508;50.956;4.640;2022-08-01T14:23:43;30.50;64.60
20698;DHT22;10508;50.956;4.640;2022-08-01T14:26:09;29.90;66.90
20698;DHT22;10508;50.956;4.640;2022-08-01T14:28:36;29.70;66.90
20698;DHT22;10508;50.956;4.640;2022-08-01T14:31:02;29.80;66.10
20698;DHT22;10508;50.956;4.640;2022-08-01T14:33:28;30.40;66.10
20698;DHT22;10508;50.956;4.640;2022-08-01T14:35:54;30.70;65.50
20698;DHT22;10508;50.956;4.640;2022-08-01T14:38:20;30.90;64.80
20698;DHT22;10508;50.956;4.640;2022-08-01T14:40:46;30.90;64.00
20698;DHT22;10508;50.956;4.640;2022-08-01T14:43:19;31.10;63.80
20698;DHT22;10508;50.956;4.640;2022-08-01T14:45:45;31.20;62.40
20698;DHT22;10508;50.956;4.640;2022-08-01T14:48:16;31.20;62.00
20698;DHT22;10508;50.956;4.640;2022-08-01T14:50:42;31.00;64.30
20698;DHT22;10508;50.956;4.640;2022-08-01T14:53:07;31.30;62.60
20698;DHT22;10508;50.956;4.640;2022-08-01T14:55:33;31.40;62.40
20698;DHT22;10508;50.956;4.640;2022-08-01T14:57:59;31.50;62.50
20698;DHT22;10508;50.956;4.640;2022-08-01T15:00:24;31.50;63.10
20698;DHT22;10508;50.956;4.640;2022-08-01T15:02:50;31.60;61.50
20698;DHT22;10508;50.956;4.640;2022-08-01T15:05:16;31.80;61.80
20698;DHT22;10508;50.956;4.640;2022-08-01T15:07:41;31.70;61.40
20698;DHT22;10508;50.956;4.640;2022-08-01T15:10:07;32.10;61.50
20698;DHT22;10508;50.956;4.640;2022-08-01T15:12:46;32.30;61.70
20698;DHT22;10508;50.956;4.640;2022-08-01T15:15:12;32.30;61.30
20698;DHT22;10508;50.956;4.640;2022-08-01T15:17:38;32.50;60.00
20698;DHT22;10508;50.956;4.640;2022-08-01T15:20:05;32.50;59.30
20698;DHT22;10508;50.956;4.640;2022-08-01T15:22:31;32.60;59.30
20698;DHT22;10508;50.956;4.640;2022-08-01T15:24:59;32.40;58.00
20698;DHT22;10508;50.956;4.640;2022-08-01T15:27:25;32.50;57.70
20698;DHT22;10508;50.956;4.640;2022-08-01T15:29:52;32.60;58.80
20698;DHT22;10508;50.956;4.640;2022-08-01T15:32:18;32.80;57.70
20698;DHT22;10508;50.956;4.640;2022-08-01T15:34:44;32.70;58.60
20698;DHT22;10508;50.956;4.640;2022-08-01T15:37:10;32.60;58.50
20698;DHT22;10508;50.956;4.640;2022-08-01T15:39:36;32.60;58.30
20698;DHT22;10508;50.956;4.640;2022-08-01T15:42:07;32.70;57.90
20698;DHT22;10508;50.956;4.640;2022-08-01T15:44:34;32.30;58.00
20698;DHT22;10508;50.956;4.640;2022-08-01T15:47:09;32.20;58.80
20698;DHT22;10508;50.956;4.640;2022-08-01T15:49:35;32.40;59.50
20698;DHT22;10508;50.956;4.640;2022-08-01T15:52:08;32.80;58.10
20698;DHT22;10508;50.956;4.640;2022-08-01T15:54:34;32.70;58.30
20698;DHT22;10508;50.956;4.640;2022-08-01T15:57:00;32.70;57.80
20698;DHT22;10508;50.956;4.640;2022-08-01T15:59:26;32.70;57.30
20698;DHT22;10508;50.956;4.640;2022-08-01T16:01:51;32.50;57.70
20698;DHT22;10508;50.956;4.640;2022-08-01T16:04:17;32.40;58.40
20698;DHT22;10508;50.956;4.640;2022-08-01T16:06:43;32.80;56.90